Ingoey — LDNC — position and weather

sailwx.info

Track history (hours):
 
Tides and Currents Weather Stations Pressure Air Temp Water Temp Dewpoint Dewpoint Depression Visibility Wind Speed Wind Dir Waves Ship Positions

Ingoey

Last reported at 2017-Dec-07 16:47 UTC. Time now 2017-Dec-15 23:50 UTC.
Position N 70°31' E 023°38'.
Warning: this ship's position is 8 days out of date.

Length 27 m.

Type: High speed craft. MMSI: 258433000.

Date/timePositionNaut miles runAvg speedWind from/ knotsBaromVisibWave heightAir tempDewpointWater temp
2017-Dec-07 16:47N 70°31' E 023°38'622.1
2017-Dec-07 16:30N 70°37' E 023°36'3 6.5
2017-Dec-07 16:00N 70°40' E 023°41'918.0
2017-Dec-07 15:30N 70°36' E 023°17'4 7.4
2017-Dec-07 14:57N 70°39' E 023°12'4 6.7
2017-Dec-07 14:25N 70°43' E 023°18'512.0
2017-Dec-07 14:00N 70°47' E 023°27'2 4.5
2017-Dec-07 13:30N 70°45' E 023°30'6 6.3
2017-Dec-07 12:33N 70°40' E 023°41'0 0.0
2017-Dec-07 12:15N 70°40' E 023°41'0 0.0
2017-Dec-07 11:51N 70°40' E 023°41'0 0.0
2017-Dec-07 11:21N 70°40' E 023°41'0 0.0
2017-Dec-07 10:51N 70°40' E 023°41'0 0.0
2017-Dec-07 10:15N 70°40' E 023°41'0 0.0
2017-Dec-07 09:39N 70°40' E 023°41'0 0.0
2017-Dec-07 09:27N 70°40' E 023°41'0 0.3
2017-Dec-07 09:00N 70°40' E 023°41'7 5.5
2017-Dec-07 07:45N 70°45' E 023°25'  
2017-Dec-04 10:30N 70°40' E 023°41'3 6.1
2017-Dec-04 10:00N 70°39' E 023°32'9 3.6
2017-Dec-04 07:33N 70°34' E 023°12'224.8
2017-Dec-04 07:29N 70°35' E 023°15'1020.6
2017-Dec-04 07:00N 70°40' E 023°41'0 0.1
2017-Dec-04 06:30N 70°40' E 023°41'7 6.0
2017-Dec-04 05:21N 70°45' E 023°26'410.6
2017-Dec-04 05:00N 70°41' E 023°30'4 7.0
2017-Dec-04 04:27N 70°40' E 023°41'0 0.0
2017-Dec-04 03:57N 70°40' E 023°41'0 0.0
2017-Dec-04 03:09N 70°40' E 023°41'0 0.0
2017-Dec-04 02:51N 70°40' E 023°41'0 0.0
2017-Dec-04 02:21N 70°40' E 023°41'0 0.0
2017-Dec-04 01:33N 70°40' E 023°41'0 0.0
2017-Dec-04 01:27N 70°40' E 023°41'0 0.0
2017-Dec-04 00:57N 70°40' E 023°41'0 0.0
2017-Dec-04 00:03N 70°40' E 023°41'0 0.0
2017-Dec-03 23:51N 70°40' E 023°41'0 0.0
2017-Dec-03 23:09N 70°40' E 023°41'0 0.0
2017-Dec-03 22:57N 70°40' E 023°41'0 0.0
2017-Dec-03 22:09N 70°40' E 023°41'0 0.0
2017-Dec-03 20:34N 70°40' E 023°41'0 0.1
2017-Dec-03 20:29N 70°40' E 023°41'612.5
2017-Dec-03 20:01N 70°34' E 023°36'  
2017-Nov-30 16:13N 70°33' E 023°37'524.3
2017-Nov-30 16:00N 70°38' E 023°37'4 6.9
2017-Nov-30 15:28N 70°34' E 023°36'2 0.4
2017-Nov-30 11:44N 70°36' E 023°35'419.7
2017-Nov-30 11:30N 70°40' E 023°41'0 0.3
2017-Nov-30 11:00N 70°40' E 023°41'0 0.0
2017-Nov-30 09:36N 70°40' E 023°41'0 0.0
2017-Nov-30 09:30N 70°40' E 023°41'0 0.0
2017-Nov-30 09:00N 70°40' E 023°41'0 0.0
2017-Nov-30 08:30N 70°40' E 023°41'9 0.4
2017-Nov-29 08:37N 70°31' E 023°38'324.2
2017-Nov-29 08:30N 70°34' E 023°36'611.7
2017-Nov-29 08:00N 70°40' E 023°40'6 0.4
2017-Nov-28 16:09N 70°34' E 023°37'422.8
2017-Nov-28 15:58N 70°38' E 023°36'5 0.7
2017-Nov-28 08:35N 70°33' E 023°37'324.8
2017-Nov-28 08:27N 70°36' E 023°36'2 5.2
2017-Nov-28 07:59N 70°38' E 023°37'  
Track history (hours):
 
Tides and Currents Weather Stations Pressure Air Temp Water Temp Dewpoint Dewpoint Depression Visibility Wind Speed Wind Dir Waves Ship Positions

Ingoey

Last reported at 2017-Dec-07 16:47 UTC. Time now 2017-Dec-15 23:50 UTC.
Position N 70°31' E 023°38'.
Warning: this ship's position is 8 days out of date.

Length 27 m.

Type: High speed craft. MMSI: 258433000.

Date/timePositionNaut miles runAvg speedWind from/ knotsBaromVisibWave heightAir tempDewpointWater temp
2017-Dec-07 16:47N 70°31' E 023°38'622.1
2017-Dec-07 16:30N 70°37' E 023°36'3 6.5
2017-Dec-07 16:00N 70°40' E 023°41'918.0
2017-Dec-07 15:30N 70°36' E 023°17'4 7.4
2017-Dec-07 14:57N 70°39' E 023°12'4 6.7
2017-Dec-07 14:25N 70°43' E 023°18'512.0
2017-Dec-07 14:00N 70°47' E 023°27'2 4.5
2017-Dec-07 13:30N 70°45' E 023°30'6 6.3
2017-Dec-07 12:33N 70°40' E 023°41'0 0.0
2017-Dec-07 12:15N 70°40' E 023°41'0 0.0
2017-Dec-07 11:51N 70°40' E 023°41'0 0.0
2017-Dec-07 11:21N 70°40' E 023°41'0 0.0
2017-Dec-07 10:51N 70°40' E 023°41'0 0.0
2017-Dec-07 10:15N 70°40' E 023°41'0 0.0
2017-Dec-07 09:39N 70°40' E 023°41'0 0.0
2017-Dec-07 09:27N 70°40' E 023°41'0 0.3
2017-Dec-07 09:00N 70°40' E 023°41'7 5.5
2017-Dec-07 07:45N 70°45' E 023°25'  
2017-Dec-04 10:30N 70°40' E 023°41'3 6.1
2017-Dec-04 10:00N 70°39' E 023°32'9 3.6
2017-Dec-04 07:33N 70°34' E 023°12'224.8
2017-Dec-04 07:29N 70°35' E 023°15'1020.6
2017-Dec-04 07:00N 70°40' E 023°41'0 0.1
2017-Dec-04 06:30N 70°40' E 023°41'7 6.0
2017-Dec-04 05:21N 70°45' E 023°26'410.6
2017-Dec-04 05:00N 70°41' E 023°30'4 7.0
2017-Dec-04 04:27N 70°40' E 023°41'0 0.0
2017-Dec-04 03:57N 70°40' E 023°41'0 0.0
2017-Dec-04 03:09N 70°40' E 023°41'0 0.0
2017-Dec-04 02:51N 70°40' E 023°41'0 0.0
2017-Dec-04 02:21N 70°40' E 023°41'0 0.0
2017-Dec-04 01:33N 70°40' E 023°41'0 0.0
2017-Dec-04 01:27N 70°40' E 023°41'0 0.0
2017-Dec-04 00:57N 70°40' E 023°41'0 0.0
2017-Dec-04 00:03N 70°40' E 023°41'0 0.0
2017-Dec-03 23:51N 70°40' E 023°41'0 0.0
2017-Dec-03 23:09N 70°40' E 023°41'0 0.0
2017-Dec-03 22:57N 70°40' E 023°41'0 0.0
2017-Dec-03 22:09N 70°40' E 023°41'0 0.0
2017-Dec-03 20:34N 70°40' E 023°41'0 0.1
2017-Dec-03 20:29N 70°40' E 023°41'612.5
2017-Dec-03 20:01N 70°34' E 023°36'  
2017-Nov-30 16:13N 70°33' E 023°37'524.3
2017-Nov-30 16:00N 70°38' E 023°37'4 6.9
2017-Nov-30 15:28N 70°34' E 023°36'2 0.4
2017-Nov-30 11:44N 70°36' E 023°35'419.7
2017-Nov-30 11:30N 70°40' E 023°41'0 0.3
2017-Nov-30 11:00N 70°40' E 023°41'0 0.0
2017-Nov-30 09:36N 70°40' E 023°41'0 0.0
2017-Nov-30 09:30N 70°40' E 023°41'0 0.0
2017-Nov-30 09:00N 70°40' E 023°41'0 0.0
2017-Nov-30 08:30N 70°40' E 023°41'9 0.4
2017-Nov-29 08:37N 70°31' E 023°38'324.2
2017-Nov-29 08:30N 70°34' E 023°36'611.7
2017-Nov-29 08:00N 70°40' E 023°40'6 0.4
2017-Nov-28 16:09N 70°34' E 023°37'422.8
2017-Nov-28 15:58N 70°38' E 023°36'5 0.7
2017-Nov-28 08:35N 70°33' E 023°37'324.8
2017-Nov-28 08:27N 70°36' E 023°36'2 5.2
2017-Nov-28 07:59N 70°38' E 023°37'  

Dump ship's entire track history